sensor_id;sensor_type;location;lat;lon;timestamp;pressure;altitude;pressure_sealevel;temperature;humidity
40940;BME280;26666;50.156;7.700;2023-03-01T00:04:00;101651.53;;;0.23;78.01
40940;BME280;26666;50.156;7.700;2023-03-01T00:09:02;101659.19;;;0.29;78.61
40940;BME280;26666;50.156;7.700;2023-03-01T00:14:04;101656.72;;;0.23;78.48
40940;BME280;26666;50.156;7.700;2023-03-01T00:19:07;101660.28;;;0.18;77.47
40940;BME280;26666;50.156;7.700;2023-03-01T00:24:10;101659.50;;;0.15;78.04
40940;BME280;26666;50.156;7.700;2023-03-01T00:29:12;101664.97;;;0.01;77.86
40940;BME280;26666;50.156;7.700;2023-03-01T00:34:13;101663.97;;;0.10;77.84
40940;BME280;26666;50.156;7.700;2023-03-01T00:39:15;101657.34;;;0.34;77.41
40940;BME280;26666;50.156;7.700;2023-03-01T00:44:16;101652.91;;;-0.02;78.76
40940;BME280;26666;50.156;7.700;2023-03-01T00:49:18;101644.22;;;-0.01;78.69
40940;BME280;26666;50.156;7.700;2023-03-01T00:54:19;101644.84;;;0.12;78.76
40940;BME280;26666;50.156;7.700;2023-03-01T00:59:21;101644.84;;;0.11;79.74
40940;BME280;26666;50.156;7.700;2023-03-01T01:04:23;101636.25;;;0.09;78.58
40940;BME280;26666;50.156;7.700;2023-03-01T01:09:24;101629.72;;;-0.11;78.59
40940;BME280;26666;50.156;7.700;2023-03-01T01:14:26;101624.22;;;0.03;77.85
40940;BME280;26666;50.156;7.700;2023-03-01T01:19:27;101614.50;;;0.11;78.65
40940;BME280;26666;50.156;7.700;2023-03-01T01:24:29;101615.59;;;0.01;79.16
40940;BME280;26666;50.156;7.700;2023-03-01T01:29:31;101615.72;;;-0.04;79.15
40940;BME280;26666;50.156;7.700;2023-03-01T01:34:32;101608.13;;;-0.14;78.30
40940;BME280;26666;50.156;7.700;2023-03-01T01:39:35;101611.13;;;0.08;78.25
40940;BME280;26666;50.156;7.700;2023-03-01T01:44:36;101606.78;;;0.10;77.73
40940;BME280;26666;50.156;7.700;2023-03-01T01:59:57;101582.19;;;-0.16;80.18
40940;BME280;26666;50.156;7.700;2023-03-01T02:05:04;101585.06;;;0.11;79.80
40940;BME280;26666;50.156;7.700;2023-03-01T02:10:10;101592.50;;;-0.11;79.27
40940;BME280;26666;50.156;7.700;2023-03-01T02:15:11;101582.59;;;0.06;79.88
40940;BME280;26666;50.156;7.700;2023-03-01T02:25:35;101586.53;;;-0.16;80.45
40940;BME280;26666;50.156;7.700;2023-03-01T02:30:37;101579.94;;;0.08;79.84
40940;BME280;26666;50.156;7.700;2023-03-01T02:35:38;101582.63;;;0.05;79.45
40940;BME280;26666;50.156;7.700;2023-03-01T02:40:40;101568.53;;;0.15;79.56
40940;BME280;26666;50.156;7.700;2023-03-01T02:45:48;101584.72;;;-0.13;80.65
40940;BME280;26666;50.156;7.700;2023-03-01T02:56:03;101566.91;;;0.09;80.46
40940;BME280;26666;50.156;7.700;2023-03-01T03:01:05;101557.13;;;-0.18;81.64
40940;BME280;26666;50.156;7.700;2023-03-01T03:06:06;101535.53;;;0.18;80.21
40940;BME280;26666;50.156;7.700;2023-03-01T03:11:08;101517.84;;;-0.05;81.83
40940;BME280;26666;50.156;7.700;2023-03-01T03:16:09;101524.63;;;0.03;81.44
40940;BME280;26666;50.156;7.700;2023-03-01T03:21:11;101515.38;;;0.27;81.91
40940;BME280;26666;50.156;7.700;2023-03-01T03:26:12;101519.06;;;0.19;80.70
40940;BME280;26666;50.156;7.700;2023-03-01T03:31:14;101515.72;;;0.13;80.83
40940;BME280;26666;50.156;7.700;2023-03-01T03:36:16;101520.47;;;-0.06;81.64
40940;BME280;26666;50.156;7.700;2023-03-01T03:41:18;101514.59;;;-0.13;82.33
40940;BME280;26666;50.156;7.700;2023-03-01T03:46:19;101511.59;;;0.04;80.59
40940;BME280;26666;50.156;7.700;2023-03-01T03:51:21;101504.06;;;-0.08;80.80
40940;BME280;26666;50.156;7.700;2023-03-01T03:56:22;101493.03;;;-0.18;81.65
40940;BME280;26666;50.156;7.700;2023-03-01T04:01:24;101481.97;;;-0.26;82.16
40940;BME280;26666;50.156;7.700;2023-03-01T04:06:25;101472.81;;;-0.43;82.76
40940;BME280;26666;50.156;7.700;2023-03-01T04:11:27;101475.09;;;-0.27;82.35
40940;BME280;26666;50.156;7.700;2023-03-01T04:16:28;101480.13;;;-0.21;81.91
40940;BME280;26666;50.156;7.700;2023-03-01T04:21:30;101479.00;;;-0.09;82.36
40940;BME280;26666;50.156;7.700;2023-03-01T04:26:32;101477.22;;;-0.07;81.26
40940;BME280;26666;50.156;7.700;2023-03-01T04:31:33;101486.47;;;-0.33;82.52
40940;BME280;26666;50.156;7.700;2023-03-01T04:36:35;101477.59;;;-0.24;81.52
40940;BME280;26666;50.156;7.700;2023-03-01T04:41:37;101478.78;;;-0.39;81.15
40940;BME280;26666;50.156;7.700;2023-03-01T04:46:39;101482.50;;;-0.51;82.82
40940;BME280;26666;50.156;7.700;2023-03-01T04:51:41;101485.88;;;-0.47;82.17
40940;BME280;26666;50.156;7.700;2023-03-01T04:56:42;101491.03;;;-0.44;82.66
40940;BME280;26666;50.156;7.700;2023-03-01T05:01:43;101500.91;;;-0.21;82.16
40940;BME280;26666;50.156;7.700;2023-03-01T05:06:45;101501.28;;;-0.38;82.11
40940;BME280;26666;50.156;7.700;2023-03-01T05:11:46;101493.59;;;-0.43;82.17
40940;BME280;26666;50.156;7.700;2023-03-01T05:16:48;101491.09;;;-0.49;81.71
40940;BME280;26666;50.156;7.700;2023-03-01T05:21:49;101488.50;;;-0.47;82.04
40940;BME280;26666;50.156;7.700;2023-03-01T05:26:50;101495.84;;;-0.68;83.94
40940;BME280;26666;50.156;7.700;2023-03-01T05:31:52;101487.25;;;-0.70;82.32
40940;BME280;26666;50.156;7.700;2023-03-01T05:36:54;101485.22;;;-0.57;83.62
40940;BME280;26666;50.156;7.700;2023-03-01T05:41:57;101476.66;;;-0.61;81.91
40940;BME280;26666;50.156;7.700;2023-03-01T05:46:59;101478.66;;;-0.73;82.79
40940;BME280;26666;50.156;7.700;2023-03-01T05:52:00;101480.31;;;-0.69;82.55
40940;BME280;26666;50.156;7.700;2023-03-01T05:57:02;101481.97;;;-0.67;83.56
40940;BME280;26666;50.156;7.700;2023-03-01T06:02:03;101488.06;;;-0.68;82.48
40940;BME280;26666;50.156;7.700;2023-03-01T06:07:04;101478.91;;;-0.86;82.24
40940;BME280;26666;50.156;7.700;2023-03-01T06:12:06;101478.13;;;-0.89;82.77
40940;BME280;26666;50.156;7.700;2023-03-01T06:17:07;101481.28;;;-0.75;82.35
40940;BME280;26666;50.156;7.700;2023-03-01T06:22:09;101491.16;;;-0.92;82.60
40940;BME280;26666;50.156;7.700;2023-03-01T06:27:10;101483.31;;;-0.89;82.61
40940;BME280;26666;50.156;7.700;2023-03-01T06:32:12;101479.47;;;-0.71;83.69
40940;BME280;26666;50.156;7.700;2023-03-01T06:37:13;101471.78;;;-0.76;83.73
40940;BME280;26666;50.156;7.700;2023-03-01T06:42:14;101474.63;;;-0.88;83.46
40940;BME280;26666;50.156;7.700;2023-03-01T06:47:16;101463.81;;;-0.67;82.16
40940;BME280;26666;50.156;7.700;2023-03-01T06:52:17;101466.72;;;-0.82;83.06
40940;BME280;26666;50.156;7.700;2023-03-01T06:57:18;101463.78;;;-0.65;83.31
40940;BME280;26666;50.156;7.700;2023-03-01T07:02:20;101462.13;;;-0.69;83.23
40940;BME280;26666;50.156;7.700;2023-03-01T07:07:21;101471.09;;;-0.86;83.71
40940;BME280;26666;50.156;7.700;2023-03-01T07:12:23;101467.75;;;-0.49;84.09
40940;BME280;26666;50.156;7.700;2023-03-01T07:17:24;101468.31;;;-0.34;82.81
40940;BME280;26666;50.156;7.700;2023-03-01T07:22:26;101471.88;;;-0.38;82.54
40940;BME280;26666;50.156;7.700;2023-03-01T07:27:27;101468.59;;;-0.47;83.30
40940;BME280;26666;50.156;7.700;2023-03-01T07:32:28;101458.66;;;-0.29;83.17
40940;BME280;26666;50.156;7.700;2023-03-01T07:37:30;101462.47;;;-0.07;82.95
40940;BME280;26666;50.156;7.700;2023-03-01T07:42:31;101454.31;;;0.09;83.40
40940;BME280;26666;50.156;7.700;2023-03-01T07:47:33;101449.19;;;0.40;82.86
40940;BME280;26666;50.156;7.700;2023-03-01T07:52:34;101453.44;;;0.44;82.90
40940;BME280;26666;50.156;7.700;2023-03-01T07:57:36;101452.78;;;0.36;84.23
40940;BME280;26666;50.156;7.700;2023-03-01T08:02:37;101435.88;;;0.52;84.67
40940;BME280;26666;50.156;7.700;2023-03-01T08:07:39;101433.34;;;0.82;82.67
40940;BME280;26666;50.156;7.700;2023-03-01T08:12:40;101436.22;;;1.03;82.50
40940;BME280;26666;50.156;7.700;2023-03-01T08:17:42;101429.97;;;1.10;83.87
40940;BME280;26666;50.156;7.700;2023-03-01T08:22:43;101430.44;;;1.52;81.63
40940;BME280;26666;50.156;7.700;2023-03-01T08:27:44;101434.59;;;2.13;79.09
40940;BME280;26666;50.156;7.700;2023-03-01T08:32:46;101433.44;;;2.72;77.41
40940;BME280;26666;50.156;7.700;2023-03-01T08:37:47;101434.84;;;2.82;71.75
40940;BME280;26666;50.156;7.700;2023-03-01T08:42:49;101434.22;;;2.99;73.23
40940;BME280;26666;50.156;7.700;2023-03-01T08:47:52;101421.44;;;2.91;73.33
40940;BME280;26666;50.156;7.700;2023-03-01T08:52:53;101410.13;;;3.82;71.20
40940;BME280;26666;50.156;7.700;2023-03-01T08:57:55;101403.69;;;3.69;68.43
40940;BME280;26666;50.156;7.700;2023-03-01T09:02:56;101398.13;;;3.99;68.86
40940;BME280;26666;50.156;7.700;2023-03-01T09:07:58;101392.09;;;3.97;67.23
40940;BME280;26666;50.156;7.700;2023-03-01T09:12:59;101385.03;;;4.21;66.54
40940;BME280;26666;50.156;7.700;2023-03-01T09:18:00;101380.69;;;4.40;67.34
40940;BME280;26666;50.156;7.700;2023-03-01T09:23:02;101366.19;;;4.91;66.93
40940;BME280;26666;50.156;7.700;2023-03-01T09:28:03;101355.41;;;4.60;66.68
40940;BME280;26666;50.156;7.700;2023-03-01T09:33:05;101353.13;;;4.52;65.60
40940;BME280;26666;50.156;7.700;2023-03-01T09:38:06;101355.56;;;4.76;65.02
40940;BME280;26666;50.156;7.700;2023-03-01T09:43:12;101357.84;;;5.02;64.33
40940;BME280;26666;50.156;7.700;2023-03-01T09:48:17;101356.72;;;5.08;63.45
40940;BME280;26666;50.156;7.700;2023-03-01T09:53:21;101362.28;;;5.38;63.47
40940;BME280;26666;50.156;7.700;2023-03-01T09:58:46;101356.00;;;4.85;62.53
40940;BME280;26666;50.156;7.700;2023-03-01T10:03:55;101358.28;;;5.48;61.23
40940;BME280;26666;50.156;7.700;2023-03-01T10:14:07;101348.84;;;5.81;61.56
40940;BME280;26666;50.156;7.700;2023-03-01T10:19:23;101343.34;;;5.50;60.42
40940;BME280;26666;50.156;7.700;2023-03-01T10:24:26;101329.28;;;5.70;60.34
40940;BME280;26666;50.156;7.700;2023-03-01T10:29:31;101322.09;;;5.74;61.25
40940;BME280;26666;50.156;7.700;2023-03-01T10:34:36;101314.75;;;5.63;61.62
40940;BME280;26666;50.156;7.700;2023-03-01T10:39:39;101313.06;;;5.80;60.78
40940;BME280;26666;50.156;7.700;2023-03-01T10:44:55;101298.56;;;5.72;60.81
40940;BME280;26666;50.156;7.700;2023-03-01T10:50:00;101307.91;;;5.78;61.33
40940;BME280;26666;50.156;7.700;2023-03-01T11:00:25;101289.31;;;5.65;60.71
40940;BME280;26666;50.156;7.700;2023-03-01T11:05:27;101281.59;;;5.97;60.50
40940;BME280;26666;50.156;7.700;2023-03-01T11:10:29;101275.88;;;5.89;59.93
40940;BME280;26666;50.156;7.700;2023-03-01T11:15:31;101258.59;;;5.85;60.42
40940;BME280;26666;50.156;7.700;2023-03-01T11:20:34;101257.78;;;6.02;59.66
40940;BME280;26666;50.156;7.700;2023-03-01T11:25:37;101250.81;;;5.83;60.19
40940;BME280;26666;50.156;7.700;2023-03-01T11:36:29;101244.88;;;5.80;60.34
40940;BME280;26666;50.156;7.700;2023-03-01T11:41:33;101240.81;;;5.74;61.45
40940;BME280;26666;50.156;7.700;2023-03-01T11:46:39;101239.63;;;5.97;60.33
40940;BME280;26666;50.156;7.700;2023-03-01T11:57:04;101235.25;;;5.80;60.34
40940;BME280;26666;50.156;7.700;2023-03-01T12:02:16;101218.13;;;5.73;58.18
40940;BME280;26666;50.156;7.700;2023-03-01T12:28:24;101173.06;;;6.00;58.37
40940;BME280;26666;50.156;7.700;2023-03-01T12:38:45;101151.19;;;5.99;58.55
40940;BME280;26666;50.156;7.700;2023-03-01T12:54:14;101137.31;;;5.97;58.38
40940;BME280;26666;50.156;7.700;2023-03-01T12:59:39;101120.31;;;6.04;56.53
40940;BME280;26666;50.156;7.700;2023-03-01T13:11:04;101100.53;;;6.15;57.95
40940;BME280;26666;50.156;7.700;2023-03-01T13:15:34;101111.28;;;6.10;57.35
40940;BME280;26666;50.156;7.700;2023-03-01T13:31:03;101088.41;;;6.28;56.90
40940;BME280;26666;50.156;7.700;2023-03-01T13:36:05;101087.94;;;6.05;56.38
40940;BME280;26666;50.156;7.700;2023-03-01T13:41:07;101088.25;;;6.31;56.40
40940;BME280;26666;50.156;7.700;2023-03-01T13:46:10;101088.22;;;6.47;55.17
40940;BME280;26666;50.156;7.700;2023-03-01T13:51:13;101079.38;;;6.18;55.43
40940;BME280;26666;50.156;7.700;2023-03-01T13:56:33;101078.09;;;6.25;54.19
40940;BME280;26666;50.156;7.700;2023-03-01T14:01:37;101064.22;;;6.23;55.40
40940;BME280;26666;50.156;7.700;2023-03-01T14:06:38;101071.56;;;6.32;53.40
40940;BME280;26666;50.156;7.700;2023-03-01T14:22:24;101051.97;;;6.54;57.33
40940;BME280;26666;50.156;7.700;2023-03-01T14:27:26;101053.03;;;6.35;55.93
40940;BME280;26666;50.156;7.700;2023-03-01T14:32:29;101048.78;;;6.48;54.20
40940;BME280;26666;50.156;7.700;2023-03-01T14:37:32;101040.38;;;6.42;53.22
40940;BME280;26666;50.156;7.700;2023-03-01T14:42:34;101046.50;;;6.42;54.54
40940;BME280;26666;50.156;7.700;2023-03-01T14:47:37;101037.75;;;6.42;55.02
40940;BME280;26666;50.156;7.700;2023-03-01T14:52:39;101037.19;;;6.37;55.22
40940;BME280;26666;50.156;7.700;2023-03-01T14:57:45;101035.69;;;6.32;52.85
40940;BME280;26666;50.156;7.700;2023-03-01T15:02:48;101018.75;;;6.38;53.83
40940;BME280;26666;50.156;7.700;2023-03-01T15:07:51;101015.19;;;6.54;55.07
40940;BME280;26666;50.156;7.700;2023-03-01T15:12:53;101017.81;;;6.54;52.16
40940;BME280;26666;50.156;7.700;2023-03-01T15:17:55;101013.28;;;6.41;54.13
40940;BME280;26666;50.156;7.700;2023-03-01T15:22:57;101003.19;;;6.49;56.50
40940;BME280;26666;50.156;7.700;2023-03-01T15:28:00;100992.53;;;6.53;52.79
40940;BME280;26666;50.156;7.700;2023-03-01T15:38:24;100989.81;;;6.54;54.05
40940;BME280;26666;50.156;7.700;2023-03-01T15:43:37;100996.56;;;6.58;54.42
40940;BME280;26666;50.156;7.700;2023-03-01T15:48:38;100991.78;;;6.50;54.21
40940;BME280;26666;50.156;7.700;2023-03-01T15:53:40;100988.94;;;6.54;53.85
40940;BME280;26666;50.156;7.700;2023-03-01T15:58:57;100994.56;;;6.47;54.52
40940;BME280;26666;50.156;7.700;2023-03-01T16:03:58;101002.94;;;6.54;52.87
40940;BME280;26666;50.156;7.700;2023-03-01T16:09:00;101003.47;;;6.45;52.94
40940;BME280;26666;50.156;7.700;2023-03-01T16:14:01;101004.22;;;6.47;52.83
40940;BME280;26666;50.156;7.700;2023-03-01T16:19:03;101011.22;;;6.62;53.71
40940;BME280;26666;50.156;7.700;2023-03-01T16:24:05;101003.94;;;6.51;53.83
40940;BME280;26666;50.156;7.700;2023-03-01T16:29:06;101007.56;;;6.65;57.35
40940;BME280;26666;50.156;7.700;2023-03-01T16:34:07;101012.94;;;6.47;54.73
40940;BME280;26666;50.156;7.700;2023-03-01T16:39:09;101012.50;;;6.55;56.45
40940;BME280;26666;50.156;7.700;2023-03-01T16:44:10;101011.06;;;6.49;56.00
40940;BME280;26666;50.156;7.700;2023-03-01T16:49:11;101008.72;;;6.45;55.22
40940;BME280;26666;50.156;7.700;2023-03-01T16:54:13;101013.75;;;6.34;53.55
40940;BME280;26666;50.156;7.700;2023-03-01T16:59:14;101021.53;;;6.35;54.08
40940;BME280;26666;50.156;7.700;2023-03-01T17:04:16;101020.13;;;6.44;56.65
40940;BME280;26666;50.156;7.700;2023-03-01T17:09:19;101015.56;;;6.47;54.53
40940;BME280;26666;50.156;7.700;2023-03-01T17:14:21;101017.28;;;6.48;55.13
40940;BME280;26666;50.156;7.700;2023-03-01T17:19:22;101021.47;;;6.21;56.99
40940;BME280;26666;50.156;7.700;2023-03-01T17:24:23;101028.97;;;5.79;58.28
40940;BME280;26666;50.156;7.700;2023-03-01T17:29:25;101026.69;;;5.57;59.94
40940;BME280;26666;50.156;7.700;2023-03-01T17:34:26;101032.44;;;5.80;57.38
40940;BME280;26666;50.156;7.700;2023-03-01T17:39:28;101044.88;;;5.27;58.99
40940;BME280;26666;50.156;7.700;2023-03-01T17:44:32;101050.75;;;5.48;60.04
40940;BME280;26666;50.156;7.700;2023-03-01T17:49:33;101050.72;;;5.32;58.52
40940;BME280;26666;50.156;7.700;2023-03-01T17:54:35;101034.03;;;5.00;60.08
40940;BME280;26666;50.156;7.700;2023-03-01T17:59:36;101032.44;;;4.80;60.22
40940;BME280;26666;50.156;7.700;2023-03-01T18:04:38;101048.00;;;4.65;61.27
40940;BME280;26666;50.156;7.700;2023-03-01T18:09:39;101051.31;;;4.51;62.02
40940;BME280;26666;50.156;7.700;2023-03-01T18:14:41;101056.84;;;3.90;64.19
40940;BME280;26666;50.156;7.700;2023-03-01T18:19:42;101049.97;;;4.06;64.59
40940;BME280;26666;50.156;7.700;2023-03-01T18:24:43;101049.66;;;3.95;63.82
40940;BME280;26666;50.156;7.700;2023-03-01T18:29:45;101039.75;;;3.83;65.60
40940;BME280;26666;50.156;7.700;2023-03-01T18:34:46;101039.94;;;3.59;64.57
40940;BME280;26666;50.156;7.700;2023-03-01T18:39:51;101045.47;;;3.53;64.98
40940;BME280;26666;50.156;7.700;2023-03-01T18:44:52;101034.41;;;3.46;64.84
40940;BME280;26666;50.156;7.700;2023-03-01T18:49:54;101025.53;;;3.31;65.43
40940;BME280;26666;50.156;7.700;2023-03-01T18:54:56;101025.16;;;3.20;67.39
40940;BME280;26666;50.156;7.700;2023-03-01T18:59:57;101018.50;;;3.13;66.39
40940;BME280;26666;50.156;7.700;2023-03-01T19:04:59;101015.63;;;3.19;66.43
40940;BME280;26666;50.156;7.700;2023-03-01T19:10:00;101009.88;;;3.11;67.63
40940;BME280;26666;50.156;7.700;2023-03-01T19:15:02;100999.19;;;2.96;67.44
40940;BME280;26666;50.156;7.700;2023-03-01T19:20:04;101002.19;;;2.87;68.03
40940;BME280;26666;50.156;7.700;2023-03-01T19:25:05;101010.69;;;2.92;67.55
40940;BME280;26666;50.156;7.700;2023-03-01T19:30:07;101005.53;;;2.91;67.29
40940;BME280;26666;50.156;7.700;2023-03-01T19:35:09;101015.19;;;2.89;67.46
40940;BME280;26666;50.156;7.700;2023-03-01T19:40:10;101018.44;;;2.73;66.89
40940;BME280;26666;50.156;7.700;2023-03-01T19:45:12;101025.03;;;2.62;67.21
40940;BME280;26666;50.156;7.700;2023-03-01T19:50:14;101031.97;;;2.63;66.80
40940;BME280;26666;50.156;7.700;2023-03-01T19:55:16;101028.44;;;2.64;68.63
40940;BME280;26666;50.156;7.700;2023-03-01T20:00:17;101020.28;;;2.71;68.31
40940;BME280;26666;50.156;7.700;2023-03-01T20:05:19;101026.13;;;2.35;67.62
40940;BME280;26666;50.156;7.700;2023-03-01T20:10:20;101025.59;;;2.48;67.72
40940;BME280;26666;50.156;7.700;2023-03-01T20:15:22;101022.38;;;2.41;66.92
40940;BME280;26666;50.156;7.700;2023-03-01T20:20:23;101031.00;;;2.43;67.33
40940;BME280;26666;50.156;7.700;2023-03-01T20:25:24;101038.81;;;2.43;67.80
40940;BME280;26666;50.156;7.700;2023-03-01T20:30:26;101036.78;;;2.29;67.53
40940;BME280;26666;50.156;7.700;2023-03-01T20:35:27;101042.19;;;2.25;69.38
40940;BME280;26666;50.156;7.700;2023-03-01T20:40:29;101039.63;;;2.23;69.14
40940;BME280;26666;50.156;7.700;2023-03-01T20:45:31;101034.97;;;2.09;69.13
40940;BME280;26666;50.156;7.700;2023-03-01T20:50:33;101032.91;;;2.17;68.95
40940;BME280;26666;50.156;7.700;2023-03-01T20:55:36;101040.84;;;2.14;69.68
40940;BME280;26666;50.156;7.700;2023-03-01T21:00:38;101049.75;;;2.09;69.57
40940;BME280;26666;50.156;7.700;2023-03-01T21:05:39;101044.31;;;2.15;70.26
40940;BME280;26666;50.156;7.700;2023-03-01T21:10:40;101048.94;;;2.08;69.05
40940;BME280;26666;50.156;7.700;2023-03-01T21:15:42;101043.28;;;1.97;70.49
40940;BME280;26666;50.156;7.700;2023-03-01T21:20:51;101034.81;;;1.90;70.60
40940;BME280;26666;50.156;7.700;2023-03-01T21:26:02;101045.78;;;1.76;69.43
40940;BME280;26666;50.156;7.700;2023-03-01T21:36:09;101033.88;;;1.93;70.09
40940;BME280;26666;50.156;7.700;2023-03-01T21:41:12;101024.72;;;2.05;70.17
40940;BME280;26666;50.156;7.700;2023-03-01T21:46:15;101016.34;;;1.96;70.07
40940;BME280;26666;50.156;7.700;2023-03-01T21:51:17;101018.94;;;1.96;70.20
40940;BME280;26666;50.156;7.700;2023-03-01T21:56:20;101012.94;;;1.94;70.51
40940;BME280;26666;50.156;7.700;2023-03-01T22:01:23;101015.16;;;1.83;71.27
40940;BME280;26666;50.156;7.700;2023-03-01T22:06:26;101019.91;;;1.94;71.18
40940;BME280;26666;50.156;7.700;2023-03-01T22:11:27;101025.63;;;1.82;69.97
40940;BME280;26666;50.156;7.700;2023-03-01T22:16:29;101012.63;;;1.80;70.01
40940;BME280;26666;50.156;7.700;2023-03-01T22:21:32;101021.00;;;1.88;70.64
40940;BME280;26666;50.156;7.700;2023-03-01T22:26:38;101026.75;;;1.74;71.52
40940;BME280;26666;50.156;7.700;2023-03-01T22:31:40;101020.75;;;1.72;71.21
40940;BME280;26666;50.156;7.700;2023-03-01T22:36:42;101026.75;;;1.74;70.90
40940;BME280;26666;50.156;7.700;2023-03-01T22:41:44;101027.00;;;1.68;72.32
40940;BME280;26666;50.156;7.700;2023-03-01T22:46:45;101024.56;;;1.64;71.57
40940;BME280;26666;50.156;7.700;2023-03-01T22:51:47;101019.97;;;1.47;71.63
40940;BME280;26666;50.156;7.700;2023-03-01T22:56:49;101018.13;;;1.50;72.61
40940;BME280;26666;50.156;7.700;2023-03-01T23:01:51;101021.88;;;1.42;72.96
40940;BME280;26666;50.156;7.700;2023-03-01T23:06:52;101012.78;;;1.53;72.33
40940;BME280;26666;50.156;7.700;2023-03-01T23:11:55;101024.53;;;1.40;72.90
40940;BME280;26666;50.156;7.700;2023-03-01T23:16:56;101011.25;;;1.48;73.28
40940;BME280;26666;50.156;7.700;2023-03-01T23:21:58;101015.56;;;1.49;72.83
40940;BME280;26666;50.156;7.700;2023-03-01T23:27:00;101019.28;;;1.42;74.25
40940;BME280;26666;50.156;7.700;2023-03-01T23:32:02;101014.63;;;1.26;74.11
40940;BME280;26666;50.156;7.700;2023-03-01T23:37:03;101007.41;;;1.34;74.58
40940;BME280;26666;50.156;7.700;2023-03-01T23:42:05;101001.28;;;1.35;74.03
40940;BME280;26666;50.156;7.700;2023-03-01T23:47:06;100993.66;;;1.31;73.51
40940;BME280;26666;50.156;7.700;2023-03-01T23:52:11;100988.31;;;1.34;74.03
40940;BME280;26666;50.156;7.700;2023-03-01T23:57:12;100990.81;;;1.37;73.92
